Logo AVAMET Logo AVAMET
Benvolgut visitant, si us plau, ingressa Recuperar contrasenya
AVAMET paisatges
Union Alcoyana

Peníscola Benimar

Dades diàries. Acumulats / Últims 30 dies disponibles

Data Temperatura (°C) Humitat rel. (%) Pressió rel. (hPa) Vent (km/h) Precipitació
Mínima Mitjana Màxima Amplitud
tèrmica
Mínima Mitjana Màxima Mínima Mitjana Màxima Predom. Mitjana Ràfega
màxima
Total
(mm)
Índex-n
Mínima Mitjana Màxima Mínima Mitjana Màxima n
0 a 1
P0 max
mm 5'
Dades mensuals acumulades fins l'últim dia disponible
04/2024 7,2 11,4 15,2 16,4 17,8 21,4 26,5 19,3 25 59 92 1.002 1.018 1.031   11,3 66,0 0,0
Dades anuals acumulades fins l'últim dia disponible
2024 1,8 8,9 15,2 13,2 11,8 17,8 26,5 24,7 25 68 97 984 1.016 1.036   10,9 91,7 72,4
Últims 30 dies disponibles
18-04-2024 12,0     16,0     20,6 8,6 34 48 72 1.012 1.014 1.020 NW 14,8 49,9 0,0
17-04-2024 13,1     15,7     19,7 6,6 37 56 77 1.012 1.013 1.015 NW 16,9 49,9 0,0
16-04-2024 14,7     18,9     23,4 8,7 29 46 79 1.011 1.013 1.017 SSE 14,0 48,3 0,0
15-04-2024 11,3     18,2     23,5 12,2 40 56 76 1.015 1.017 1.020 SE 8,2 37,0 0,0
14-04-2024 12,3     18,5     25,5 13,2 34 53 74 1.020 1.022 1.025 SSE 10,5 41,8 0,0
13-04-2024 11,8     19,3     26,5 14,7 25 43 61 1.023 1.025 1.028 WSW 10,8 33,8 0,0
12-04-2024 10,8     17,8     24,0 13,2 34 48 68 1.027 1.029 1.031 SSE 12,4 37,0 0,0
11-04-2024 8,9     15,3     19,3 10,4 34 49 64 1.024 1.027 1.031 SE 9,3 35,4 0,0
10-04-2024 10,9     15,9     21,0 10,1 26 46 65 1.022 1.025 1.028 NW 14,6 45,1 0,0
09-04-2024 12,6     16,4     20,6 8,0 25 40 58 1.012 1.020 1.028 NW 24,1 66,0 0,0
08-04-2024 13,9     17,2     21,7 7,8 53 82 92 1.006 1.009 1.012 NW 6,6 29,0 0,0
07-04-2024 15,2     17,1     20,2 5,0 72 84 91 1.011 1.015 1.018 ENE 8,4 29,0 0,0
06-04-2024 10,1     14,4     17,8 7,7 76 87 91 1.017 1.018 1.019 ENE 9,8 25,7 0,0
05-04-2024 10,6     15,0     18,3 7,7 70 82 90 1.017 1.018 1.020 W 6,4 30,6 0,0
04-04-2024 9,6     16,1     22,6 13,0 42 66 84 1.016 1.018 1.019 SSE 7,9 33,8 0,0
03-04-2024 9,6     16,0     22,5 12,9 38 65 80 1.014 1.016 1.019 SSE 9,2 35,4 0,0
02-04-2024 9,9     14,2     18,6 8,7 38 57 73 1.015 1.017 1.019 SSE 10,1 40,2 0,0
01-04-2024 7,2     13,3     18,7 11,5 33 55 71 1.002 1.009 1.016 WSW 9,8 30,6 0,0
31-03-2024 8,6     13,4     17,2 8,6 48 69 91 994 996 1.001 SO 13,9 51,5 0,0
30-03-2024 7,0     12,5     16,8 9,8 52 75 88 994 996 997 S 11,7 53,1 0,0
29-03-2024 10,9     14,7     20,4 9,5 56 84 94 992 997 1.000 W 10,1 67,6 0,2
28-03-2024 14,0     17,2     21,1 7,1 44 64 93 993 999 1.002 SSW 20,6 67,6 0,0
27-03-2024 6,0     14,3     20,3 14,3 47 61 81 993 994 996 SSW 18,5 61,2 0,0
26-03-2024 6,3     11,9     18,2 11,9 43 83 95 988 990 993 WSW 8,4 40,2 9,4
25-03-2024 12,1     12,9     14,1 2,0 83 91 95 992 1.000 1.010 SE 4,2 22,5 12,6
24-03-2024 11,1     14,1     17,1 6,0 50 79 92 1.011 1.014 1.017 SE 8,2 30,6 0,2
23-03-2024 10,8     15,6     19,9 9,1 59 69 80 1.016 1.017 1.019 WSW 10,3 33,8 0,0
22-03-2024 10,3     16,1     24,9 14,6 41 69 91 1.016 1.019 1.022 W 8,7 30,6 0,0
21-03-2024 11,9     14,4     16,4 4,5 80 87 92 1.021 1.022 1.024 ENE 7,4 22,5 0,0
20-03-2024 12,4     15,3     17,9 5,5 75 86 92 1.015 1.017 1.020 N 5,6 22,5 0,0
Últims 13 mesos disponibles
03/2024 5,2 9,0 14,0 13,5 14,1 17,9 24,9 19,7 43 71 93 990 1.010 1.022 WSW 11,1 78,9 39,4
02/2024 5,2 8,8 12,3 12,9 14,7 17,5 23,4 18,2 44 67 90 991 1.016 1.031 WSW 11,5 91,7 18,0
01/2024 1,8 7,6 11,9 11,4 11,8 16,0 23,7 21,9 43 72 90 1.001 1.020 1.034 W 9,8 85,3 15,0
12/2023 2,8 8,0 14,1 12,1 14,0 16,9 22,4 19,6 47 67 87 997 1.020 1.036 W 11,7 77,2 5,4
11/2023 7,3 11,2 15,2 15,7 15,2 21,0 28,4 21,1 42 65 89 997 1.014 1.024 W 10,6 85,3 4,0
10/2023 11,4 16,6 20,8 20,7 21,2 25,1 29,3 17,9 50 73 88 993 1.013 1.024 W 9,4 70,8 3,4
09/2023 15,6 19,4 23,8 22,9 23,3 26,4 29,9 14,3 54 79 89 1.005 1.015 1.022 W 9,7 53,1 162,0
08/2023 17,8 22,5 25,3 26,5 26,6 30,4 37,8 20,0 40 67 82 1.008 1.014 1.019 SSE 12,8 72,4 9,6
07/2023 19,7 23,0 25,5 26,1 26,9 29,1 31,9 12,2 51 78 88 1.007 1.014 1.018 SE 9,8 51,5 9,2
06/2023 15,8 19,3 23,4 23,2 21,9 26,8 29,9 14,1 58 75 85 1.007 1.013 1.020 SSE 10,6 48,3 23,8
05/2023 11,1 14,3 16,9 18,6 20,2 22,6 26,1 15,0 40 67 88 1.011 1.014 1.019 NW 12,4 62,8 47,8
04/2023 6,4 11,5 16,8 16,0 16,7 20,2 25,1 18,7 41 70 87 1.006 1.014 1.020 SSE 12,7 74,0 1,4
03/2023 2,4 9,7 17,2 14,4 10,1 19,0 28,1 25,7 36 67 87 1.006 1.015 1.023 W 10,9 64,4 1,2
Tots els anys disponibles
2023 2,0 13,9 25,5 18,0 9,1 22,2 37,8 35,8 34 70 90 993 1.016 1.036 W 11,2 85,3 339,6
2022 1,5 14,3 25,8 18,2 10,9 22,2 38,2 36,7 34 72 96 997 1.016 1.033 W 10,3 101,4 512,0
Temperatura (°C)
Humitat relativa (%)
Velocitat del vent i ràfega màxima (km/h)
Direcció del vent (°)
Pressió (hPa)
Precipitació (mm)
Nota sobre les dades: s'avisa a l'usuari de la provisionalitat i no oficialitat d'aquestes dades
Logo AVAMET blanc
Web allotjada a Sollutia
Llicència de Creative CommonsLa web d'AVAMET i els seus continguts estan subjectes a una llicència de
Reconeixement - No Comercial - Compartir igual
Avís legal - Política de privacitat - Política de cookies - Canviar configuració privacitat
NOVES ESTACIONS: Sella - Tagarina/El Volador (Soci), Quart de Poblet - los Hornillos (Soci), Buñol - Partior (Soci), la Pobla de Farnals - Platja (Ajuntament/Soci), la Pobla de Farnals (Ajuntament/Soci), Calp (Ajuntament(Soci),  Carlet (Ajuntament/Soci), l'Alcora - la Foia (Ajuntament/Soci), Sant Vicent del Raspeig - las Ocas (Soci), Alcoi - IES Cotes Baixes (Soci), San Antonio de Benagéber - CELSAB (Soci), la Todolella (Ajuntament/Soci), Artana - Caseta de les Creus (Soci), Suera - Res. Espadà (Soci), Onda - Col·legi Virgen del Carmen (Soci), Catarroja - Col·legi Larrodé (Soci), València - Patraix (Soci), Ontinyent - Torre de Torús (Soci), Requena - El Rebollar (Casa Ejarque) (Soci), Elx - la Foia (Soci), Onda - el Salvador (Ajuntament/Soci), Paiporta (Ajuntament/Soci) - - -